createdAt,value
2019-05-01T00:00:23.851Z,10.00
2019-05-01T00:03:05.906Z,10.00
2019-05-01T00:05:38.653Z,10.00
2019-05-01T00:08:07.751Z,9.90
2019-05-01T00:10:36.666Z,9.80
2019-05-01T00:13:06.093Z,9.80
2019-05-01T00:15:36.437Z,9.80
2019-05-01T00:18:05.304Z,9.70
2019-05-01T00:20:33.795Z,9.80
2019-05-01T00:23:02.325Z,9.80
2019-05-01T00:25:30.853Z,9.70
2019-05-01T00:27:59.414Z,9.80
2019-05-01T00:30:30.371Z,9.70
2019-05-01T00:32:59.039Z,9.70
2019-05-01T00:35:27.788Z,9.70
2019-05-01T00:37:56.258Z,9.60
2019-05-01T00:40:24.811Z,9.50
2019-05-01T00:42:53.268Z,9.50
2019-05-01T00:45:21.832Z,9.50
2019-05-01T00:47:50.295Z,9.50
2019-05-01T00:50:18.848Z,9.40
2019-05-01T00:52:47.380Z,9.40
2019-05-01T00:55:34.486Z,9.40
2019-05-01T00:58:13.883Z,9.40
2019-05-01T01:00:56.216Z,9.30
2019-05-01T01:03:24.757Z,9.20
2019-05-01T01:05:53.308Z,9.20
2019-05-01T01:08:21.789Z,9.20
2019-05-01T01:10:50.363Z,9.10
2019-05-01T01:13:18.929Z,9.10
2019-05-01T01:15:47.470Z,9.10
2019-05-01T01:18:16.025Z,9.10
2019-05-01T01:20:44.632Z,9.10
2019-05-01T01:23:13.162Z,9.00
2019-05-01T01:25:41.712Z,9.00
2019-05-01T01:28:10.589Z,9.00
2019-05-01T01:30:39.217Z,9.00
2019-05-01T01:33:08.358Z,9.00
2019-05-01T01:35:37.050Z,9.00
2019-05-01T01:38:05.648Z,8.90
2019-05-01T01:40:35.551Z,8.90
2019-05-01T01:43:21.947Z,8.80
2019-05-01T01:45:55.247Z,8.80
2019-05-01T01:48:23.875Z,8.80
2019-05-01T01:50:52.407Z,8.70
2019-05-01T01:53:23.039Z,8.80
2019-05-01T01:55:51.946Z,8.70
2019-05-01T01:58:21.387Z,8.70
2019-05-01T02:01:08.964Z,8.70
2019-05-01T02:03:32.621Z,8.70
2019-05-01T02:06:01.317Z,8.70
2019-05-01T02:08:29.997Z,8.60
2019-05-01T02:10:58.640Z,8.60
2019-05-01T02:13:27.315Z,8.60
2019-05-01T02:15:55.992Z,8.60
2019-05-01T02:18:24.633Z,8.50
2019-05-01T02:20:53.304Z,8.50
2019-05-01T02:23:21.873Z,8.50
2019-05-01T02:25:50.471Z,8.40
2019-05-01T02:28:23.616Z,8.40
2019-05-01T02:31:27.135Z,8.40
2019-05-01T02:33:43.391Z,8.40
2019-05-01T02:36:13.898Z,8.40
2019-05-01T02:38:44.810Z,8.40
2019-05-01T02:41:16.640Z,8.30
2019-05-01T02:43:48.183Z,8.30
2019-05-01T02:46:18.287Z,8.30
2019-05-01T02:48:53.036Z,8.20
2019-05-01T02:51:21.760Z,8.20
2019-05-01T02:53:51.282Z,8.30
2019-05-01T02:56:22.879Z,8.20
2019-05-01T02:58:54.239Z,8.10
2019-05-01T03:01:23.372Z,8.10
2019-05-01T03:03:52.866Z,8.00
2019-05-01T03:06:22.392Z,8.00
2019-05-01T03:08:52.157Z,8.00
2019-05-01T03:11:20.828Z,8.00
2019-05-01T03:13:52.028Z,8.00
2019-05-01T03:16:21.354Z,7.90
2019-05-01T03:18:51.594Z,7.90
2019-05-01T03:21:22.024Z,7.80
2019-05-01T03:23:52.197Z,7.90
2019-05-01T03:26:20.746Z,7.90
2019-05-01T03:28:49.286Z,7.90
2019-05-01T03:31:18.204Z,7.90
2019-05-01T03:33:46.785Z,7.90
2019-05-01T03:36:15.869Z,7.80
2019-05-01T03:38:44.659Z,7.80
2019-05-01T03:41:13.742Z,7.80
2019-05-01T03:43:42.309Z,7.70
2019-05-01T03:46:11.092Z,7.70
2019-05-01T03:48:39.652Z,7.70
2019-05-01T03:51:08.448Z,7.70
2019-05-01T03:53:37.175Z,7.70
2019-05-01T03:56:05.799Z,7.70
2019-05-01T03:58:34.432Z,7.70
2019-05-01T04:01:21.116Z,7.70
2019-05-01T04:03:52.029Z,7.60
2019-05-01T04:06:21.613Z,7.60
2019-05-01T04:08:50.409Z,7.60
2019-05-01T04:11:19.428Z,7.60
2019-05-01T04:13:48.250Z,7.60
2019-05-01T04:16:17.884Z,7.50
2019-05-01T04:18:47.407Z,7.50
2019-05-01T04:21:16.084Z,7.60
2019-05-01T04:23:44.768Z,7.50
2019-05-01T04:26:13.508Z,7.50
2019-05-01T04:28:56.041Z,7.60
2019-05-01T04:31:32.228Z,7.60
2019-05-01T04:34:02.537Z,7.60
2019-05-01T04:36:32.895Z,7.60
2019-05-01T04:39:01.492Z,7.60
2019-05-01T04:41:30.100Z,7.70
2019-05-01T04:43:59.151Z,7.70
2019-05-01T04:46:27.827Z,7.70
2019-05-01T04:48:56.722Z,7.80
2019-05-01T04:51:25.350Z,7.90
2019-05-01T04:53:54.032Z,8.00
2019-05-01T04:56:22.735Z,8.00
2019-05-01T04:58:51.483Z,8.00
2019-05-01T05:01:20.403Z,8.10
2019-05-01T05:03:49.103Z,8.10
2019-05-01T05:06:17.698Z,8.10
2019-05-01T05:08:46.379Z,8.20
2019-05-01T05:11:17.226Z,8.30
2019-05-01T05:14:05.801Z,8.30
2019-05-01T05:16:51.240Z,8.40
2019-05-01T05:19:19.939Z,8.40
2019-05-01T05:21:48.803Z,8.40
2019-05-01T05:24:17.768Z,8.50
2019-05-01T05:26:46.576Z,8.60
2019-05-01T05:29:16.914Z,8.70
2019-05-01T05:31:45.774Z,8.70
2019-05-01T05:34:18.253Z,8.80
2019-05-01T05:36:48.692Z,8.90
2019-05-01T05:39:25.450Z,9.00
2019-05-01T05:41:55.520Z,9.20
2019-05-01T05:44:24.242Z,9.40
2019-05-01T05:46:53.002Z,9.50
2019-05-01T05:49:22.259Z,9.70
2019-05-01T05:51:55.306Z,9.80
2019-05-01T05:54:32.717Z,10.00
2019-05-01T05:57:06.055Z,10.00
2019-05-01T05:59:42.492Z,10.10
2019-05-01T06:02:22.908Z,10.20
2019-05-01T06:05:02.084Z,10.40
2019-05-01T06:07:40.035Z,10.60
2019-05-01T06:10:10.456Z,10.90
2019-05-01T06:12:46.818Z,11.10
2019-05-01T06:15:21.700Z,11.20
2019-05-01T06:17:59.044Z,11.30
2019-05-01T06:20:39.239Z,11.30
2019-05-01T06:23:20.467Z,11.40
2019-05-01T06:25:54.243Z,11.50
2019-05-01T06:28:24.791Z,11.70
2019-05-01T06:30:50.673Z,11.90
2019-05-01T06:33:19.249Z,11.90
2019-05-01T06:35:47.872Z,12.10
2019-05-01T06:38:17.543Z,12.30
2019-05-01T06:40:48.183Z,12.40
2019-05-01T06:43:43.698Z,12.60
2019-05-01T06:46:14.279Z,12.80
2019-05-01T06:49:06.621Z,12.90
2019-05-01T06:51:35.607Z,13.00
2019-05-01T06:54:11.502Z,13.20
2019-05-01T06:56:39.868Z,13.30
2019-05-01T06:59:09.384Z,13.40
2019-05-01T07:01:38.740Z,13.50
2019-05-01T07:04:07.519Z,13.60
2019-05-01T07:06:36.353Z,13.70
2019-05-01T07:09:11.798Z,13.90
2019-05-01T07:11:42.136Z,14.10
2019-05-01T07:14:11.040Z,13.80
2019-05-01T07:16:40.683Z,14.30
2019-05-01T07:19:10.167Z,14.60
2019-05-01T07:21:38.952Z,14.50
2019-05-01T07:24:07.641Z,14.80
2019-05-01T07:26:36.285Z,15.00
2019-05-01T07:29:09.942Z,15.10
2019-05-01T07:31:36.979Z,15.30
2019-05-01T07:34:16.011Z,15.40
2019-05-01T07:36:35.886Z,15.50
2019-05-01T07:39:09.955Z,15.50
2019-05-01T07:41:37.729Z,15.70
2019-05-01T07:44:23.716Z,15.90
2019-05-01T07:47:10.444Z,16.00
2019-05-01T07:49:52.733Z,16.30
2019-05-01T07:52:22.364Z,16.30
2019-05-01T07:54:51.335Z,16.50
2019-05-01T07:57:22.976Z,16.50
2019-05-01T07:59:50.429Z,16.60
2019-05-01T08:02:19.044Z,16.60
2019-05-01T08:04:47.540Z,16.70
2019-05-01T08:07:16.011Z,16.90
2019-05-01T08:09:45.800Z,16.90
2019-05-01T08:12:18.745Z,16.90
2019-05-01T08:14:47.849Z,16.90
2019-05-01T08:17:18.202Z,16.90
2019-05-01T08:19:54.903Z,17.00
2019-05-01T08:22:25.547Z,17.20
2019-05-01T08:24:58.688Z,17.40
2019-05-01T08:27:26.004Z,17.40
2019-05-01T08:30:04.965Z,17.40
2019-05-01T08:32:51.235Z,17.40
2019-05-01T08:35:21.436Z,17.50
2019-05-01T08:37:53.841Z,17.80
2019-05-01T08:40:20.779Z,17.70
2019-05-01T08:42:50.244Z,17.70
2019-05-01T08:45:20.505Z,17.90
2019-05-01T08:47:50.706Z,17.80
2019-05-01T08:50:24.724Z,18.20
2019-05-01T08:52:51.027Z,18.30
2019-05-01T08:55:19.669Z,18.30
2019-05-01T08:57:48.282Z,18.40
2019-05-01T09:00:17.096Z,18.20
2019-05-01T09:02:45.667Z,18.30
2019-05-01T09:05:28.529Z,18.30
2019-05-01T09:07:44.686Z,18.40
2019-05-01T09:10:16.954Z,18.50
2019-05-01T09:12:46.911Z,18.60
2019-05-01T09:15:14.712Z,18.50
2019-05-01T09:17:43.710Z,18.90
2019-05-01T09:20:12.800Z,18.60
2019-05-01T09:22:41.672Z,18.80
2019-05-01T09:25:12.264Z,18.90
2019-05-01T09:27:42.440Z,19.10
2019-05-01T09:30:29.245Z,19.30
2019-05-01T09:32:57.795Z,19.60
2019-05-01T09:35:26.423Z,20.00
2019-05-01T09:37:54.915Z,20.30
2019-05-01T09:40:23.537Z,20.60
2019-05-01T09:42:57.497Z,20.50
2019-05-01T09:45:22.531Z,20.40
2019-05-01T09:47:51.185Z,20.40
2019-05-01T09:50:19.860Z,20.60
2019-05-01T09:52:55.129Z,20.60
2019-05-01T09:55:27.295Z,20.70
2019-05-01T09:57:56.114Z,20.50
2019-05-01T10:00:32.162Z,20.20
2019-05-01T10:03:01.307Z,20.00
2019-05-01T10:05:29.867Z,20.00
2019-05-01T10:08:00.074Z,19.70
2019-05-01T10:10:29.240Z,19.70
2019-05-01T10:12:59.011Z,19.80
2019-05-01T10:15:27.702Z,19.80
2019-05-01T10:17:56.449Z,19.80
2019-05-01T10:20:25.107Z,19.90
2019-05-01T10:22:53.893Z,19.90
2019-05-01T10:25:22.453Z,20.00
2019-05-01T10:28:07.158Z,20.00
2019-05-01T10:30:37.618Z,20.10
2019-05-01T10:33:08.074Z,20.10
2019-05-01T10:35:44.377Z,19.90
2019-05-01T10:38:13.205Z,19.80
2019-05-01T10:40:42.002Z,19.70
2019-05-01T10:43:11.203Z,19.60
2019-05-01T10:45:40.024Z,19.70
2019-05-01T10:48:08.796Z,19.70
2019-05-01T10:50:37.505Z,19.70
2019-05-01T10:53:06.164Z,19.60
2019-05-01T10:55:34.869Z,19.70
2019-05-01T10:58:03.583Z,19.60
2019-05-01T11:00:32.231Z,19.70
2019-05-01T11:03:00.854Z,19.90
2019-05-01T11:05:29.694Z,20.10
2019-05-01T11:07:58.320Z,20.10
2019-05-01T11:10:26.951Z,20.10
2019-05-01T11:12:55.589Z,20.40
2019-05-01T11:15:24.299Z,20.40
2019-05-01T11:17:53.002Z,20.40
2019-05-01T11:20:21.617Z,20.40
2019-05-01T11:22:50.253Z,20.40
2019-05-01T11:25:20.612Z,20.40
2019-05-01T11:27:49.198Z,20.40
2019-05-01T11:30:17.919Z,20.40
2019-05-01T11:32:48.085Z,20.50
2019-05-01T11:35:36.128Z,20.40
2019-05-01T11:38:21.594Z,20.50
2019-05-01T11:40:52.270Z,20.70
2019-05-01T11:43:20.847Z,20.70
2019-05-01T11:45:49.396Z,20.90
2019-05-01T11:48:17.965Z,21.10
2019-05-01T11:50:46.451Z,21.40
2019-05-01T11:53:15.040Z,21.90
2019-05-01T11:55:43.720Z,22.40
2019-05-01T11:58:12.473Z,23.10
2019-05-01T12:00:41.190Z,23.80
2019-05-01T12:03:09.791Z,24.40
2019-05-01T12:05:38.388Z,25.30
2019-05-01T12:08:07.011Z,26.10
2019-05-01T12:10:35.668Z,26.70
2019-05-01T12:13:04.439Z,27.90
2019-05-01T12:15:33.337Z,29.10
2019-05-01T12:18:01.900Z,30.00
2019-05-01T12:20:30.372Z,30.70
2019-05-01T12:22:58.881Z,31.40
2019-05-01T12:25:27.463Z,31.80
2019-05-01T12:27:56.095Z,31.50
2019-05-01T12:30:24.703Z,32.00
2019-05-01T12:32:53.383Z,32.50
2019-05-01T12:35:21.973Z,32.60
2019-05-01T12:37:55.145Z,32.00
2019-05-01T12:40:22.725Z,31.80
2019-05-01T12:42:51.333Z,32.00
2019-05-01T12:45:20.121Z,32.60
2019-05-01T12:47:50.341Z,32.70
2019-05-01T12:50:19.934Z,32.40
2019-05-01T12:52:52.989Z,32.60
2019-05-01T12:55:34.662Z,33.00
2019-05-01T12:58:03.214Z,33.40
2019-05-01T13:00:43.393Z,33.80
2019-05-01T13:03:12.322Z,34.50
2019-05-01T13:05:41.046Z,34.00
2019-05-01T13:08:09.772Z,33.10
2019-05-01T13:10:38.333Z,33.00
2019-05-01T13:13:06.928Z,33.10
2019-05-01T13:15:35.422Z,33.60
2019-05-01T13:18:04.086Z,34.10
2019-05-01T13:20:32.659Z,34.30
2019-05-01T13:23:01.191Z,34.30
2019-05-01T13:25:29.843Z,33.50
2019-05-01T13:28:08.760Z,33.50
2019-05-01T13:30:38.960Z,33.80
2019-05-01T13:33:07.492Z,33.90
2019-05-01T13:35:36.035Z,34.10
2019-05-01T13:38:04.699Z,34.20
2019-05-01T13:40:33.248Z,35.00
2019-05-01T13:43:01.849Z,35.60
2019-05-01T13:45:30.429Z,36.40
2019-05-01T13:48:00.006Z,35.70
2019-05-01T13:50:28.856Z,35.20
2019-05-01T13:52:57.333Z,35.40
2019-05-01T13:55:25.860Z,35.70
2019-05-01T13:57:54.428Z,35.90
2019-05-01T14:00:24.896Z,35.90
2019-05-01T14:02:53.588Z,35.60
2019-05-01T14:05:22.053Z,35.70
2019-05-01T14:07:50.647Z,36.30
2019-05-01T14:10:19.772Z,36.60
2019-05-01T14:12:48.247Z,37.10
2019-05-01T14:15:18.344Z,36.90
2019-05-01T14:17:47.140Z,36.80
2019-05-01T14:20:17.545Z,37.00
2019-05-01T14:22:50.535Z,36.90
2019-05-01T14:25:19.014Z,37.20
2019-05-01T14:27:47.627Z,37.50
2019-05-01T14:30:16.257Z,38.10
2019-05-01T14:32:44.933Z,38.50
2019-05-01T14:35:13.845Z,38.90
2019-05-01T14:37:42.384Z,39.40
2019-05-01T14:40:11.388Z,39.70
2019-05-01T14:42:39.960Z,39.80
2019-05-01T14:45:10.334Z,40.20
2019-05-01T14:47:38.904Z,40.00
2019-05-01T14:50:08.354Z,39.70
2019-05-01T14:52:36.957Z,39.10
2019-05-01T14:55:07.268Z,38.70
2019-05-01T14:57:35.811Z,38.80
2019-05-01T15:00:08.599Z,38.50
2019-05-01T15:02:37.063Z,37.80
2019-05-01T15:05:07.244Z,37.70
2019-05-01T15:07:43.245Z,37.90
2019-05-01T15:10:06.646Z,38.40
2019-05-01T15:12:35.275Z,38.20
2019-05-01T15:15:09.443Z,38.30
2019-05-01T15:17:51.392Z,38.70
2019-05-01T15:20:19.849Z,38.90
2019-05-01T15:22:48.384Z,39.20
2019-05-01T15:25:17.299Z,39.80
2019-05-01T15:27:46.369Z,40.20
2019-05-01T15:30:17.928Z,40.40
2019-05-01T15:32:46.912Z,40.20
2019-05-01T15:35:15.509Z,39.70
2019-05-01T15:37:55.938Z,39.40
2019-05-01T15:40:16.456Z,39.40
2019-05-01T15:42:58.352Z,40.00
2019-05-01T15:45:26.814Z,40.00
2019-05-01T15:47:55.347Z,40.20
2019-05-01T15:50:23.828Z,40.20
2019-05-01T15:52:52.296Z,40.20
2019-05-01T15:55:20.892Z,40.30
2019-05-01T15:57:49.455Z,40.20
2019-05-01T16:00:20.527Z,40.30
2019-05-01T16:02:49.155Z,40.40
2019-05-01T16:05:17.751Z,40.50
2019-05-01T16:07:46.384Z,40.40
2019-05-01T16:10:16.851Z,40.40
2019-05-01T16:12:49.594Z,40.40
2019-05-01T16:15:19.900Z,40.50
2019-05-01T16:17:48.428Z,40.50
2019-05-01T16:20:17.154Z,40.70
2019-05-01T16:22:45.626Z,40.20
2019-05-01T16:25:14.315Z,40.10
2019-05-01T16:27:42.825Z,40.10
2019-05-01T16:30:13.444Z,39.60
2019-05-01T16:32:42.011Z,39.40
2019-05-01T16:35:10.609Z,39.50
2019-05-01T16:37:39.309Z,39.60
2019-05-01T16:40:26.032Z,39.60
2019-05-01T16:42:54.628Z,39.80
2019-05-01T16:45:23.352Z,39.70
2019-05-01T16:47:51.927Z,39.50
2019-05-01T16:50:20.744Z,39.40
2019-05-01T16:52:49.286Z,38.90
2019-05-01T16:55:18.588Z,38.20
2019-05-01T16:57:47.301Z,38.30
2019-05-01T17:00:16.989Z,37.90
2019-05-01T17:03:02.406Z,37.70
2019-05-01T17:05:41.435Z,37.40
2019-05-01T17:08:11.810Z,37.00
2019-05-01T17:10:51.197Z,36.90
2019-05-01T17:13:20.042Z,36.80
2019-05-01T17:15:50.325Z,36.80
2019-05-01T17:18:19.888Z,36.50
2019-05-01T17:20:48.540Z,36.60
2019-05-01T17:23:17.272Z,36.40
2019-05-01T17:25:45.955Z,36.00
2019-05-01T17:28:14.608Z,35.70
2019-05-01T17:30:46.816Z,35.30
2019-05-01T17:33:20.845Z,34.50
2019-05-01T17:35:45.764Z,33.50
2019-05-01T17:38:15.376Z,32.70
2019-05-01T17:40:47.373Z,32.20
2019-05-01T17:43:15.469Z,31.40
2019-05-01T17:45:44.202Z,31.00
2019-05-01T17:48:12.941Z,30.80
2019-05-01T17:50:41.846Z,30.60
2019-05-01T17:53:10.440Z,30.30
2019-05-01T17:55:39.078Z,29.80
2019-05-01T17:58:07.693Z,29.50
2019-05-01T18:00:38.120Z,29.00
2019-05-01T18:03:24.892Z,28.70
2019-05-01T18:05:56.175Z,28.30
2019-05-01T18:08:25.759Z,28.00
2019-05-01T18:10:54.436Z,27.70
2019-05-01T18:13:23.139Z,27.50
2019-05-01T18:15:52.142Z,27.20
2019-05-01T18:18:20.873Z,26.90
2019-05-01T18:20:49.939Z,26.50
2019-05-01T18:23:26.361Z,26.10
2019-05-01T18:26:04.810Z,25.50
2019-05-01T18:28:50.120Z,24.90
2019-05-01T18:31:20.542Z,24.10
2019-05-01T18:33:49.414Z,23.50
2019-05-01T18:36:20.055Z,22.90
2019-05-01T18:38:51.850Z,22.50
2019-05-01T18:41:22.273Z,22.00
2019-05-01T18:43:51.040Z,21.50
2019-05-01T18:46:19.982Z,21.10
2019-05-01T18:48:48.759Z,20.80
2019-05-01T18:51:17.639Z,20.40
2019-05-01T18:53:46.558Z,20.20
2019-05-01T18:56:15.480Z,19.90
2019-05-01T18:58:44.361Z,19.60
2019-05-01T19:01:13.299Z,19.40
2019-05-01T19:03:42.715Z,19.10
2019-05-01T19:06:12.551Z,18.90
2019-05-01T19:08:41.459Z,18.70
2019-05-01T19:11:12.711Z,18.50
2019-05-01T19:13:41.572Z,18.40
2019-05-01T19:16:10.584Z,18.20
2019-05-01T19:18:39.366Z,18.00
2019-05-01T19:21:08.302Z,17.90
2019-05-01T19:23:37.249Z,17.80
2019-05-01T19:26:07.551Z,17.70
2019-05-01T19:28:36.455Z,17.50
2019-05-01T19:31:05.510Z,17.50
2019-05-01T19:33:34.362Z,17.40
2019-05-01T19:36:08.074Z,17.30
2019-05-01T19:38:35.021Z,17.20
2019-05-01T19:41:08.847Z,17.10
2019-05-01T19:43:35.901Z,17.00
2019-05-01T19:46:06.190Z,17.00
2019-05-01T19:48:35.079Z,16.90
2019-05-01T19:51:03.969Z,16.80
2019-05-01T19:53:32.844Z,16.80
2019-05-01T19:56:01.668Z,16.70
2019-05-01T19:58:30.664Z,16.50
2019-05-01T20:00:59.973Z,16.40
2019-05-01T20:03:30.643Z,16.40
2019-05-01T20:06:04.337Z,16.20
2019-05-01T20:08:29.958Z,16.10
2019-05-01T20:10:58.827Z,16.10
2019-05-01T20:13:28.806Z,16.00
2019-05-01T20:15:57.751Z,15.80
2019-05-01T20:18:26.555Z,15.70
2019-05-01T20:20:55.426Z,15.60
2019-05-01T20:23:26.214Z,15.50
2019-05-01T20:25:55.861Z,15.50
2019-05-01T20:28:25.377Z,15.40
2019-05-01T20:30:54.270Z,15.30
2019-05-01T20:33:23.153Z,15.30
2019-05-01T20:35:52.115Z,15.20
2019-05-01T20:38:20.925Z,15.20
2019-05-01T20:40:49.848Z,15.10
2019-05-01T20:43:19.018Z,15.00
2019-05-01T20:45:49.766Z,14.90
2019-05-01T20:48:23.434Z,14.80
2019-05-01T20:50:48.967Z,14.80
2019-05-01T20:53:17.908Z,14.70
2019-05-01T20:55:48.333Z,14.60
2019-05-01T20:58:17.734Z,14.50
2019-05-01T21:00:48.123Z,14.50
2019-05-01T21:03:18.362Z,14.50
2019-05-01T21:05:49.586Z,14.40
2019-05-01T21:08:34.354Z,14.40
2019-05-01T21:11:06.088Z,14.30
2019-05-01T21:13:33.740Z,14.30
2019-05-01T21:16:03.858Z,14.20
2019-05-01T21:18:32.715Z,14.10
2019-05-01T21:21:03.341Z,14.10
2019-05-01T21:23:33.400Z,14.20
2019-05-01T21:26:03.895Z,14.10
2019-05-01T21:28:34.060Z,14.10
2019-05-01T21:31:03.896Z,14.10
2019-05-01T21:33:33.983Z,14.10
2019-05-01T21:36:05.004Z,14.00
2019-05-01T21:38:32.890Z,13.90
2019-05-01T21:41:02.748Z,13.90
2019-05-01T21:43:35.268Z,13.80
2019-05-01T21:46:03.780Z,13.80
2019-05-01T21:48:33.457Z,13.70
2019-05-01T21:51:03.427Z,13.70
2019-05-01T21:53:32.846Z,13.60
2019-05-01T21:56:02.316Z,13.60
2019-05-01T21:58:33.457Z,13.60
2019-05-01T22:01:01.964Z,13.50
2019-05-01T22:03:30.585Z,13.40
2019-05-01T22:05:59.280Z,13.40
2019-05-01T22:08:27.815Z,13.50
2019-05-01T22:11:01.330Z,13.50
2019-05-01T22:13:26.868Z,13.50
2019-05-01T22:15:57.089Z,13.50
2019-05-01T22:18:27.272Z,13.40
2019-05-01T22:20:57.554Z,13.40
2019-05-01T22:23:27.743Z,13.40
2019-05-01T22:25:57.979Z,13.40
2019-05-01T22:28:28.117Z,13.40
2019-05-01T22:30:58.872Z,13.40
2019-05-01T22:33:28.083Z,13.40
2019-05-01T22:35:56.630Z,13.30
2019-05-01T22:38:25.276Z,13.30
2019-05-01T22:41:06.136Z,13.20
2019-05-01T22:43:25.915Z,13.20
2019-05-01T22:45:59.684Z,13.20
2019-05-01T22:48:24.875Z,13.10
2019-05-01T22:50:55.080Z,13.10
2019-05-01T22:53:23.611Z,13.10
2019-05-01T22:55:52.143Z,13.10
2019-05-01T22:58:20.756Z,13.10
2019-05-01T23:00:50.974Z,13.10
2019-05-01T23:03:21.241Z,13.00
2019-05-01T23:05:49.722Z,12.90
2019-05-01T23:08:18.256Z,12.90
2019-05-01T23:10:48.547Z,12.90
2019-05-01T23:13:17.209Z,12.80
2019-05-01T23:15:46.043Z,12.80
2019-05-01T23:18:15.484Z,12.80
2019-05-01T23:20:44.918Z,12.80
2019-05-01T23:23:13.613Z,12.70
2019-05-01T23:25:42.421Z,12.70
2019-05-01T23:28:11.058Z,12.70
2019-05-01T23:30:39.594Z,12.60
2019-05-01T23:33:08.206Z,12.60
2019-05-01T23:35:36.764Z,12.50
2019-05-01T23:38:05.689Z,12.50
2019-05-01T23:40:34.295Z,12.40
2019-05-01T23:43:02.820Z,12.30
2019-05-01T23:45:31.367Z,12.30
2019-05-01T23:48:00.842Z,12.30
2019-05-01T23:50:29.408Z,12.20
2019-05-01T23:52:57.911Z,12.20
2019-05-01T23:55:26.450Z,12.10
2019-05-01T23:57:55.060Z,12.10
